Time;durP1;ratioP1;P1;durP2;ratioP2;P2;SDS_P1;SDS_P2;PMS_P1;PMS_P2;Temp;Humidity;BMP_temperature;BMP_pressure;BME280_temperature;BME280_humidity;BME280_pressure;Samples;Min_cycle;Max_cycle;Signal;HPM_P1;HPM_P2
2021/06/26 12:58:11;;;;;;;3.10;2.80;;;28.30;74.20;;;;;;5177450;23;20157;-59
2021/06/26 13:00:37;;;;;;;4.07;2.60;;;28.70;75.00;;;;;;4911468;29;20433;-54
2021/06/26 13:03:03;;;;;;;3.05;2.80;;;29.00;73.80;;;;;;4912903;29;20083;-55
2021/06/26 13:05:29;;;;;;;7.35;3.45;;;29.00;74.00;;;;;;4912206;29;20030;-55
2021/06/26 13:08:06;;;;;;;3.40;3.13;;;28.80;73.80;;;;;;4912531;29;20024;-55
2021/06/26 13:10:34;;;;;;;3.05;2.75;;;28.30;72.90;;;;;;4912248;29;20039;-56
2021/06/26 13:13:00;;;;;;;4.95;2.92;;;27.90;73.00;;;;;;4911957;29;20032;-56
2021/06/26 13:15:29;;;;;;;3.60;3.30;;;27.70;74.50;;;;;;4895956;29;20031;-56
2021/06/26 13:17:56;;;;;;;3.85;3.15;;;27.90;74.80;;;;;;4914328;29;20028;-55
2021/06/26 13:20:22;;;;;;;4.38;2.67;;;28.00;75.30;;;;;;4914076;29;20767;-57
2021/06/26 13:22:48;;;;;;;5.00;2.78;;;28.00;75.20;;;;;;4914105;29;20084;-56
2021/06/26 13:25:16;;;;;;;4.45;2.78;;;28.10;73.80;;;;;;4915467;29;20082;-54
2021/06/26 13:27:45;;;;;;;4.07;3.13;;;28.10;72.80;;;;;;4913954;29;20096;-53
2021/06/26 13:30:13;;;;;;;3.70;3.40;;;27.90;73.00;;;;;;4913239;29;20048;-53
2021/06/26 13:32:40;;;;;;;3.47;3.05;;;27.60;72.50;;;;;;4913741;29;20094;-52
2021/06/26 13:35:07;;;;;;;3.65;3.10;;;27.50;74.00;;;;;;4913380;29;20032;-54
2021/06/26 13:37:32;;;;;;;3.75;3.00;;;27.50;74.90;;;;;;4913914;29;20054;-53
2021/06/26 13:39:58;;;;;;;3.35;3.05;;;27.40;73.30;;;;;;4913755;29;20062;-53
2021/06/26 13:42:24;;;;;;;4.05;2.88;;;27.40;74.70;;;;;;4900823;29;20320;-53
2021/06/26 13:44:50;;;;;;;4.35;3.60;;;27.30;75.30;;;;;;4915116;29;20500;-53
2021/06/26 13:47:17;;;;;;;4.32;3.72;;;27.30;75.80;;;;;;4933541;29;20064;-54
2021/06/26 13:49:42;;;;;;;4.00;3.00;;;27.20;75.60;;;;;;4934344;29;20470;-53
2021/06/26 13:52:08;;;;;;;3.72;3.28;;;27.30;76.40;;;;;;4932098;29;20032;-52
2021/06/26 13:54:34;;;;;;;4.35;3.42;;;27.40;75.80;;;;;;4932780;29;20118;-56
2021/06/26 13:57:00;;;;;;;3.33;3.00;;;27.50;75.90;;;;;;4932648;29;20031;-54
2021/06/26 13:59:26;;;;;;;3.13;2.90;;;27.70;75.30;;;;;;4929114;29;20060;-56
2021/06/26 14:01:52;;;;;;;4.18;2.83;;;27.90;74.40;;;;;;4928646;29;20031;-55
2021/06/26 14:04:18;;;;;;;4.43;3.47;;;27.80;73.00;;;;;;4916022;29;20481;-53
2021/06/26 14:06:44;;;;;;;6.78;3.72;;;27.70;74.40;;;;;;4913740;29;20039;-53
2021/06/26 14:09:09;;;;;;;4.60;4.20;;;27.60;73.60;;;;;;4905003;29;20035;-54
2021/06/26 14:11:36;;;;;;;4.28;3.03;;;27.40;74.30;;;;;;4897692;29;20028;-54
2021/06/26 14:14:02;;;;;;;4.75;3.72;;;27.40;74.50;;;;;;4897906;29;20152;-53
2021/06/26 14:16:28;;;;;;;5.57;4.55;;;27.10;73.90;;;;;;4896202;29;20036;-54
2021/06/26 14:18:54;;;;;;;5.93;3.30;;;27.10;74.60;;;;;;4896198;29;20037;-60
2021/06/26 14:21:20;;;;;;;5.88;3.35;;;26.90;74.50;;;;;;4900053;29;20426;-53
2021/06/26 14:23:45;;;;;;;5.82;3.15;;;27.00;74.50;;;;;;4915517;29;20028;-54
2021/06/26 14:26:11;;;;;;;4.55;3.40;;;26.80;74.00;;;;;;4914690;29;20032;-55
2021/06/26 14:28:38;;;;;;;3.42;3.00;;;26.90;75.10;;;;;;4913078;29;20028;-55
2021/06/26 14:31:05;;;;;;;4.35;3.60;;;27.00;75.80;;;;;;4913337;29;20100;-54
2021/06/26 14:33:31;;;;;;;7.05;3.92;;;27.10;75.90;;;;;;4915629;29;20028;-54
2021/06/26 14:35:57;;;;;;;8.43;4.38;;;27.10;76.70;;;;;;4913105;29;20178;-54
2021/06/26 14:38:23;;;;;;;7.88;4.18;;;27.10;76.90;;;;;;4913757;29;20056;-54
2021/06/26 14:40:48;;;;;;;7.60;3.95;;;27.40;76.50;;;;;;4913501;29;20458;-54
2021/06/26 14:43:16;;;;;;;5.10;3.72;;;27.50;75.90;;;;;;4911736;29;20032;-53
2021/06/26 14:45:42;;;;;;;5.90;3.28;;;27.60;75.50;;;;;;4914190;29;20028;-53
2021/06/26 14:48:07;;;;;;;4.32;3.65;;;27.60;74.50;;;;;;4913087;29;20043;-58
2021/06/26 14:50:33;;;;;;;5.30;4.80;;;27.60;75.20;;;;;;4912108;29;20043;-54
2021/06/26 14:52:59;;;;;;;6.68;4.55;;;27.40;75.40;;;;;;4913835;29;20036;-55
2021/06/26 14:55:25;;;;;;;6.15;3.97;;;27.30;76.40;;;;;;4911392;29;20384;-53
2021/06/26 14:57:51;;;;;;;6.35;3.90;;;27.20;74.90;;;;;;4913491;29;20043;-53
2021/06/26 15:00:17;;;;;;;5.65;3.85;;;26.80;75.50;;;;;;4914170;29;20457;-52
2021/06/26 15:02:43;;;;;;;5.20;4.65;;;26.70;76.80;;;;;;4913453;29;20327;-53
2021/06/26 15:05:09;;;;;;;5.95;4.60;;;26.60;77.80;;;;;;4911609;29;20127;-55
2021/06/26 15:07:37;;;;;;;3.60;3.30;;;26.60;77.90;;;;;;4913153;29;20131;-54
2021/06/26 15:10:05;;;;;;;5.22;3.80;;;26.60;77.90;;;;;;4915421;29;20054;-53
2021/06/26 15:12:30;;;;;;;7.82;3.80;;;26.60;78.60;;;;;;4914770;29;20032;-53
2021/06/26 15:14:56;;;;;;;4.90;3.90;;;26.60;78.20;;;;;;4914468;29;20047;-53
2021/06/26 15:17:22;;;;;;;4.38;3.55;;;26.60;78.60;;;;;;4913474;29;20490;-53
2021/06/26 15:19:47;;;;;;;6.53;3.63;;;26.70;78.40;;;;;;4914130;29;20107;-53
2021/06/26 15:22:13;;;;;;;5.50;3.97;;;26.90;76.90;;;;;;4913782;29;20044;-54
2021/06/26 15:24:39;;;;;;;6.85;3.90;;;26.80;76.70;;;;;;4914811;29;20024;-52
2021/06/26 15:27:05;;;;;;;5.28;3.70;;;26.80;77.70;;;;;;4915334;29;20028;-53
2021/06/26 15:29:31;;;;;;;4.68;3.55;;;26.90;76.90;;;;;;4912462;29;20040;-53
2021/06/26 15:31:57;;;;;;;3.55;3.22;;;27.00;77.10;;;;;;4913227;29;20028;-54
2021/06/26 15:34:22;;;;;;;6.38;4.28;;;27.00;77.00;;;;;;4912337;29;20071;-53
2021/06/26 15:36:48;;;;;;;4.13;3.67;;;26.90;77.10;;;;;;4914613;29;20378;-54
2021/06/26 15:39:14;;;;;;;3.88;3.45;;;27.10;78.10;;;;;;4913388;29;20375;-52
2021/06/26 15:41:42;;;;;;;3.60;3.28;;;27.20;76.30;;;;;;4912962;29;20031;-53
2021/06/26 15:44:09;;;;;;;3.63;3.20;;;27.20;74.80;;;;;;4913205;29;20047;-61
2021/06/26 15:46:35;;;;;;;3.40;3.10;;;27.10;74.60;;;;;;4913334;29;20108;-52
2021/06/26 15:49:01;;;;;;;5.55;3.17;;;27.00;74.70;;;;;;4913444;29;20077;-52
2021/06/26 15:51:29;;;;;;;5.93;3.60;;;26.90;75.10;;;;;;4913585;29;20044;-60
2021/06/26 15:53:57;;;;;;;4.00;3.47;;;26.80;75.40;;;;;;4912930;29;20127;-57
2021/06/26 15:56:24;;;;;;;7.40;3.15;;;26.70;76.70;;;;;;4912575;29;20035;-53
2021/06/26 15:58:50;;;;;;;5.10;3.40;;;26.60;76.10;;;;;;4912520;29;20064;-53
2021/06/26 16:01:16;;;;;;;3.67;3.05;;;26.60;75.30;;;;;;4911908;29;20036;-54
2021/06/26 16:03:42;;;;;;;5.13;3.05;;;26.60;75.50;;;;;;4913787;29;20051;-53
2021/06/26 16:06:07;;;;;;;3.72;3.10;;;26.70;76.40;;;;;;4913710;29;20030;-53
2021/06/26 16:08:33;;;;;;;6.82;3.40;;;26.80;76.70;;;;;;4912855;29;20028;-52
2021/06/26 16:10:59;;;;;;;3.58;3.28;;;26.90;75.00;;;;;;4913515;29;20111;-53
2021/06/26 16:13:24;;;;;;;3.13;2.58;;;27.00;74.30;;;;;;4913010;29;20028;-54
2021/06/26 16:15:50;;;;;;;4.05;2.95;;;27.00;74.40;;;;;;4913087;29;20039;-53
2021/06/26 16:18:16;;;;;;;4.22;3.15;;;27.10;75.20;;;;;;4909101;29;20046;-56
2021/06/26 16:20:42;;;;;;;4.40;3.13;;;27.20;74.90;;;;;;4903776;29;20032;-53
2021/06/26 16:23:09;;;;;;;3.03;2.78;;;27.20;74.60;;;;;;4901801;29;20044;-54
2021/06/26 16:25:35;;;;;;;5.13;3.13;;;27.20;74.00;;;;;;4898200;29;20127;-53
2021/06/26 16:28:01;;;;;;;3.42;3.13;;;27.30;74.80;;;;;;4892821;29;20569;-52
2021/06/26 16:30:27;;;;;;;3.35;3.05;;;27.40;74.50;;;;;;4893686;29;20048;-53
2021/06/26 16:32:53;;;;;;;4.65;3.65;;;27.40;74.00;;;;;;4910922;29;20043;-53
2021/06/26 16:35:19;;;;;;;4.72;3.22;;;27.30;73.70;;;;;;4903756;29;20028;-54
2021/06/26 16:37:55;;;;;;;5.88;2.90;;;27.00;73.10;;;;;;4905481;29;20037;-53
2021/06/26 16:40:21;;;;;;;6.35;4.07;;;26.90;73.30;;;;;;4906486;29;20349;-53
2021/06/26 16:42:48;;;;;;;4.05;3.13;;;26.80;78.60;;;;;;4897627;29;20044;-53
2021/06/26 16:45:14;;;;;;;6.78;3.13;;;26.80;75.80;;;;;;4907873;29;20085;-65
2021/06/26 16:47:40;;;;;;;3.08;2.78;;;26.80;73.30;;;;;;4908833;29;20465;-52
2021/06/26 16:50:07;;;;;;;4.97;3.22;;;26.80;75.80;;;;;;4912663;29;20350;-52
2021/06/26 16:52:33;;;;;;;3.60;3.25;;;26.60;75.10;;;;;;4915259;29;20031;-51
2021/06/26 16:54:59;;;;;;;3.90;3.55;;;26.70;74.90;;;;;;4931518;29;20362;-52
2021/06/26 16:57:26;;;;;;;4.07;3.55;;;26.60;76.10;;;;;;4916439;29;20063;-52
2021/06/26 16:59:52;;;;;;;4.18;3.33;;;26.50;77.30;;;;;;4931141;29;20457;-53
2021/06/26 17:02:17;;;;;;;4.05;3.42;;;26.40;76.00;;;;;;4930197;29;20122;-55
2021/06/26 17:04:43;;;;;;;3.58;3.13;;;26.40;76.00;;;;;;4930651;29;20119;-52
2021/06/26 17:07:09;;;;;;;3.55;2.97;;;26.40;76.60;;;;;;4916331;29;20032;-55
2021/06/26 17:09:39;;;;;;;270.63;203.65;;;26.30;76.70;;;;;;4930073;29;20092;-66
2021/06/26 17:12:06;;;;;;;;;;;26.30;77.30;;;;;;4915586;29;20056;-54
2021/06/26 17:14:32;;;;;;;8.18;6.45;;;26.30;77.40;;;;;;4915437;29;20437;-54
2021/06/26 17:16:57;;;;;;;3.83;3.53;;;26.20;77.20;;;;;;4915311;29;20358;-55
2021/06/26 17:19:23;;;;;;;4.93;3.30;;;26.20;76.40;;;;;;4907331;29;20072;-55
2021/06/26 17:21:50;;;;;;;3.33;3.03;;;26.10;75.70;;;;;;4900458;29;20079;-56
2021/06/26 17:24:16;;;;;;;4.53;3.78;;;26.00;76.60;;;;;;4908839;29;20040;-60
2021/06/26 17:26:43;;;;;;;3.63;3.33;;;25.90;77.40;;;;;;4906653;29;20125;-55
2021/06/26 17:29:09;;;;;;;5.00;3.05;;;25.90;77.40;;;;;;4904620;29;20339;-54
2021/06/26 17:31:35;;;;;;;3.85;3.20;;;25.90;78.10;;;;;;4907687;29;20032;-53
2021/06/26 17:34:01;;;;;;;3.85;3.47;;;25.90;77.90;;;;;;4906834;29;20029;-53
2021/06/26 17:36:27;;;;;;;5.28;3.80;;;25.80;78.60;;;;;;4901403;29;20077;-55
2021/06/26 17:38:52;;;;;;;4.75;3.90;;;25.80;78.30;;;;;;4907069;29;20028;-54
2021/06/26 17:41:18;;;;;;;4.10;3.75;;;25.70;78.70;;;;;;4902606;29;20133;-54
2021/06/26 17:43:44;;;;;;;6.43;3.55;;;25.70;79.30;;;;;;4904219;29;20025;-53
2021/06/26 17:46:10;;;;;;;6.20;3.30;;;25.60;79.40;;;;;;4904964;29;20032;-57
2021/06/26 17:48:36;;;;;;;3.88;3.05;;;25.60;79.80;;;;;;4900328;29;20111;-55
2021/06/26 17:51:02;;;;;;;12.40;4.13;;;25.60;78.60;;;;;;4903099;29;20130;-58
2021/06/26 17:53:28;;;;;;;3.78;3.22;;;25.50;81.40;;;;;;4927380;29;20546;-56
2021/06/26 17:55:56;;;;;;;5.15;3.30;;;25.60;79.50;;;;;;4913958;29;20537;-54
2021/06/26 17:58:27;;;;;;;4.03;3.45;;;25.60;79.50;;;;;;4912628;29;20032;-54
2021/06/26 18:00:54;;;;;;;4.20;3.42;;;25.50;78.90;;;;;;4914766;29;20052;-55
2021/06/26 18:03:21;;;;;;;5.30;3.67;;;25.40;81.20;;;;;;4911022;29;20442;-56
2021/06/26 18:05:47;;;;;;;6.60;3.65;;;25.40;79.50;;;;;;4915232;29;20381;-54
2021/06/26 18:08:13;;;;;;;5.20;3.63;;;25.40;79.30;;;;;;4912620;29;20051;-56
2021/06/26 18:10:40;;;;;;;3.33;3.00;;;25.30;81.20;;;;;;4912774;29;20044;-56
2021/06/26 18:13:06;;;;;;;5.82;3.60;;;25.20;82.50;;;;;;4913375;29;20055;-54
2021/06/26 18:15:31;;;;;;;5.85;4.30;;;25.20;84.10;;;;;;4910485;29;20055;-55
2021/06/26 18:17:58;;;;;;;4.15;3.72;;;25.20;89.60;;;;;;4900482;29;20443;-55
2021/06/26 18:20:24;;;;;;;7.80;4.50;;;25.10;87.80;;;;;;4899474;29;20461;-56
2021/06/26 18:22:50;;;;;;;8.65;4.20;;;25.10;89.90;;;;;;4902099;29;20419;-56
2021/06/26 18:25:16;;;;;;;6.45;4.00;;;25.00;87.10;;;;;;4904285;29;20043;-63
2021/06/26 18:27:42;;;;;;;308.77;249.23;;;25.00;87.90;;;;;;4903473;29;20029;-56
2021/06/26 18:30:11;;;;;;;80.80;63.08;;;25.00;86.30;;;;;;4903698;29;20437;-54
2021/06/26 18:32:37;;;;;;;316.70;230.10;;;24.90;83.90;;;;;;4901460;29;20328;-67
2021/06/26 18:35:05;;;;;;;77.55;58.53;;;24.90;84.40;;;;;;4910049;29;20104;-55
2021/06/26 18:37:31;;;;;;;19.17;15.60;;;24.90;86.10;;;;;;4903038;29;20040;-55
2021/06/26 18:39:57;;;;;;;14.25;11.63;;;24.80;86.60;;;;;;4907298;29;20050;-55
2021/06/26 18:42:23;;;;;;;11.85;7.97;;;24.90;84.90;;;;;;4899277;29;20060;-54
2021/06/26 18:44:49;;;;;;;7.10;6.15;;;24.90;85.20;;;;;;4895817;29;20130;-54
2021/06/26 18:47:15;;;;;;;5.32;4.50;;;24.80;85.10;;;;;;4894506;29;20024;-55
2021/06/26 18:49:41;;;;;;;5.82;4.43;;;24.80;85.00;;;;;;4893348;29;20111;-55
2021/06/26 18:52:07;;;;;;;5.47;4.95;;;24.80;85.30;;;;;;4906318;29;20073;-54
2021/06/26 18:54:33;;;;;;;5.15;4.50;;;24.70;84.10;;;;;;4911867;29;20046;-55
2021/06/26 18:56:59;;;;;;;4.60;4.03;;;24.70;84.70;;;;;;4912346;29;20474;-54
2021/06/26 18:59:25;;;;;;;6.07;4.15;;;24.60;85.00;;;;;;4912997;29;20497;-55
2021/06/26 19:01:50;;;;;;;5.22;3.80;;;24.60;85.10;;;;;;4912323;29;20032;-54
2021/06/26 19:04:16;;;;;;;5.85;4.13;;;24.60;85.50;;;;;;4910952;29;20107;-54
2021/06/26 19:06:42;;;;;;;4.18;3.80;;;24.60;85.50;;;;;;4911649;29;20518;-54
2021/06/26 19:09:09;;;;;;;4.25;3.83;;;24.60;85.70;;;;;;4909139;29;20153;-54
2021/06/26 19:11:35;;;;;;;3.40;3.10;;;24.60;85.30;;;;;;4911305;29;20157;-54
2021/06/26 19:14:01;;;;;;;7.20;3.67;;;24.50;84.90;;;;;;4901655;29;20108;-54
2021/06/26 19:16:27;;;;;;;3.35;3.05;;;24.50;85.90;;;;;;4900370;29;20387;-55
2021/06/26 19:18:58;;;;;;;5.30;3.70;;;24.50;86.10;;;;;;4904654;29;20032;-55
2021/06/26 19:21:24;;;;;;;;;;;24.40;85.40;;;;;;4904209;29;20028;-55
2021/06/26 19:23:50;;;;;;;3.08;2.75;;;24.40;85.30;;;;;;4899315;29;19913;-56
2021/06/26 19:26:16;;;;;;;6.05;3.10;;;24.40;85.70;;;;;;4900314;29;20032;-57
2021/06/26 19:28:42;;;;;;;3.40;3.10;;;24.40;85.60;;;;;;4911635;29;20024;-55
2021/06/26 19:31:08;;;;;;;3.53;3.22;;;24.30;85.60;;;;;;4912601;29;20043;-55
2021/06/26 19:33:35;;;;;;;3.70;3.40;;;24.40;86.00;;;;;;4911797;29;20308;-55
2021/06/26 19:36:01;;;;;;;4.55;4.05;;;24.30;86.40;;;;;;4912596;29;20024;-55
2021/06/26 19:38:28;;;;;;;3.75;3.42;;;24.30;86.10;;;;;;4912357;29;20474;-55
2021/06/26 19:40:57;;;;;;;4.00;3.60;;;24.20;85.40;;;;;;4912143;29;20043;-55
2021/06/26 19:43:24;;;;;;;4.93;3.75;;;24.20;85.40;;;;;;4907644;29;20028;-56
2021/06/26 19:45:51;;;;;;;7.55;3.25;;;24.20;84.90;;;;;;4902681;29;20028;-56
2021/06/26 19:48:16;;;;;;;4.85;3.40;;;24.10;84.50;;;;;;4902471;29;20039;-55
2021/06/26 19:50:44;;;;;;;3.90;3.40;;;24.10;84.50;;;;;;4905287;29;20059;-55
2021/06/26 19:53:10;;;;;;;6.13;3.50;;;24.10;84.90;;;;;;4904664;29;20088;-57
2021/06/26 19:55:36;;;;;;;3.92;3.47;;;24.10;85.20;;;;;;4902718;29;20028;-56
2021/06/26 19:58:03;;;;;;;5.68;2.97;;;24.10;85.30;;;;;;4901973;29;20028;-55
2021/06/26 20:00:29;;;;;;;3.25;2.90;;;24.10;85.30;;;;;;4900489;29;20528;-56
2021/06/26 20:02:55;;;;;;;3.42;2.90;;;24.00;85.30;;;;;;4903450;29;20059;-56
2021/06/26 20:05:22;;;;;;;5.05;4.03;;;24.00;85.70;;;;;;4905938;29;20085;-63
2021/06/26 20:07:48;;;;;;;5.57;3.30;;;24.00;85.70;;;;;;4902988;29;20453;-55
2021/06/26 20:10:16;;;;;;;3.95;3.25;;;24.00;86.00;;;;;;4904578;29;20063;-55
2021/06/26 20:12:44;;;;;;;6.32;4.00;;;24.00;86.40;;;;;;4900739;29;20025;-56
2021/06/26 20:15:16;;;;;;;4.50;3.47;;;24.00;86.40;;;;;;4905910;29;20411;-55
2021/06/26 20:17:43;;;;;;;4.32;3.65;;;23.90;86.70;;;;;;4913206;29;20249;-57
2021/06/26 20:20:11;;;;;;;4.07;3.70;;;24.00;87.00;;;;;;4910734;29;20040;-55
2021/06/26 20:22:37;;;;;;;3.75;3.40;;;24.00;87.00;;;;;;4911488;29;20042;-55
2021/06/26 20:25:06;;;;;;;4.22;3.75;;;24.00;88.00;;;;;;4911316;29;20549;-56
2021/06/26 20:27:32;;;;;;;4.00;3.60;;;23.90;87.60;;;;;;4910823;29;20032;-56
2021/06/26 20:29:59;;;;;;;6.72;4.45;;;23.90;87.90;;;;;;4910817;29;20216;-57
2021/06/26 20:32:24;;;;;;;4.43;3.83;;;23.90;88.20;;;;;;4912054;29;20088;-63
2021/06/26 20:34:50;;;;;;;8.63;4.55;;;23.90;88.40;;;;;;4910390;29;20031;-56
2021/06/26 20:37:16;;;;;;;5.32;4.28;;;23.90;88.50;;;;;;4905993;29;20028;-55
2021/06/26 20:39:42;;;;;;;5.38;4.30;;;23.90;88.80;;;;;;4901593;29;20028;-55
2021/06/26 20:42:08;;;;;;;4.68;4.25;;;23.90;88.80;;;;;;4903173;29;20024;-56
2021/06/26 20:44:34;;;;;;;8.73;4.10;;;23.80;89.00;;;;;;4900441;29;20136;-55
2021/06/26 20:47:01;;;;;;;4.60;4.20;;;23.70;89.30;;;;;;4903038;29;20039;-56
2021/06/26 20:49:27;;;;;;;5.47;3.92;;;23.80;89.60;;;;;;4904240;29;20051;-56
2021/06/26 20:51:53;;;;;;;6.40;5.07;;;23.80;89.70;;;;;;4903749;29;20080;-55
2021/06/26 20:54:19;;;;;;;4.82;4.40;;;23.80;89.80;;;;;;4901668;29;20134;-55
2021/06/26 20:56:45;;;;;;;5.25;4.75;;;23.80;90.10;;;;;;4900083;29;20398;-55
2021/06/26 20:59:11;;;;;;;5.43;4.95;;;23.70;90.20;;;;;;4900266;29;20052;-54
2021/06/26 21:01:36;;;;;;;5.05;4.63;;;23.80;90.20;;;;;;4903147;29;20078;-64
2021/06/26 21:04:02;;;;;;;5.00;4.50;;;23.80;90.30;;;;;;4900884;29;20029;-54
2021/06/26 21:06:28;;;;;;;5.90;4.90;;;23.70;90.70;;;;;;4901667;29;20434;-63
2021/06/26 21:08:54;;;;;;;6.00;5.13;;;23.70;90.40;;;;;;4898563;29;20470;-54
2021/06/26 21:11:19;;;;;;;5.95;5.45;;;23.70;90.60;;;;;;4903243;29;20040;-54
2021/06/26 21:13:45;;;;;;;5.97;5.38;;;23.70;90.70;;;;;;4902410;29;20244;-55
2021/06/26 21:16:11;;;;;;;5.70;5.20;;;23.70;90.70;;;;;;4901133;29;20073;-55
2021/06/26 21:18:37;;;;;;;5.47;4.97;;;23.70;90.80;;;;;;4901842;29;20147;-53
2021/06/26 21:21:03;;;;;;;8.32;5.63;;;23.70;91.00;;;;;;4901069;29;20390;-54
2021/06/26 21:23:28;;;;;;;6.72;5.68;;;23.70;91.10;;;;;;4904409;29;20120;-53
2021/06/26 21:25:54;;;;;;;6.78;5.32;;;23.70;91.10;;;;;;4903962;29;20346;-60
2021/06/26 21:28:20;;;;;;;7.00;6.30;;;23.70;91.20;;;;;;4901352;29;20542;-54
2021/06/26 21:30:46;;;;;;;6.20;4.97;;;23.60;91.30;;;;;;4904055;29;20100;-54
2021/06/26 21:33:12;;;;;;;5.75;5.25;;;23.60;91.30;;;;;;4904106;29;20120;-54
2021/06/26 21:35:38;;;;;;;6.38;5.78;;;23.60;91.30;;;;;;4901149;29;20037;-55
2021/06/26 21:38:04;;;;;;;7.00;5.28;;;23.70;91.30;;;;;;4906967;29;20035;-55
2021/06/26 21:40:33;;;;;;;5.30;4.80;;;23.60;91.40;;;;;;4914054;29;20036;-54
2021/06/26 21:43:06;;;;;;;6.53;5.90;;;23.60;91.40;;;;;;4914418;29;20096;-55
2021/06/26 21:45:32;;;;;;;5.97;5.30;;;23.60;91.50;;;;;;4914658;29;20104;-54
2021/06/26 21:47:58;;;;;;;6.80;6.15;;;23.60;91.50;;;;;;4912640;29;20032;-54
2021/06/26 21:50:25;;;;;;;68.05;52.00;;;23.60;91.50;;;;;;4901144;29;20122;-65
2021/06/26 21:52:51;;;;;;;297.50;227.73;;;23.40;92.20;;;;;;4905069;29;20111;-65
2021/06/26 21:55:18;;;;;;;60.03;43.65;;;23.10;93.10;;;;;;4903545;29;20025;-65
2021/06/26 21:57:45;;;;;;;14.68;11.98;;;22.90;93.20;;;;;;4904076;29;20021;-65
2021/06/26 22:00:37;;;;;;;7.80;6.97;;;22.80;93.40;;;;;;4907113;29;20063;-70
2021/06/26 22:03:04;;;;;;;468.60;327.70;;;22.60;93.60;;;;;;4912561;29;20064;-66
2021/06/26 22:05:31;;;;;;;190.70;134.30;;;22.50;94.10;;;;;;4904969;29;20091;-67
2021/06/26 22:07:57;;;;;;;26.52;20.20;;;22.40;94.30;;;;;;4904624;29;20100;-65
2021/06/26 22:10:23;;;;;;;9.50;8.05;;;22.40;94.40;;;;;;4904826;29;20455;-65
2021/06/26 22:12:49;;;;;;;8.57;6.38;;;22.30;94.60;;;;;;4906005;29;20028;-64
2021/06/26 22:15:16;;;;;;;7.40;6.60;;;22.30;94.70;;;;;;4908834;29;20028;-65
2021/06/26 22:17:47;;;;;;;8.25;7.20;;;22.20;94.80;;;;;;4913939;29;20060;-65
2021/06/26 22:20:13;;;;;;;7.88;7.18;;;22.20;94.80;;;;;;4914862;29;20031;-65
2021/06/26 22:22:39;;;;;;;6.72;6.03;;;22.10;94.90;;;;;;4912838;29;20182;-65
2021/06/26 22:25:11;;;;;;;8.02;7.25;;;22.10;95.30;;;;;;4916115;29;20110;-65
2021/06/26 22:27:38;;;;;;;7.75;6.88;;;22.10;95.30;;;;;;4911205;29;20449;-65
2021/06/26 22:30:06;;;;;;;11.88;8.13;;;22.10;95.20;;;;;;4914557;29;20422;-65
2021/06/26 22:32:32;;;;;;;9.50;8.48;;;22.00;95.50;;;;;;4913520;29;20039;-71
2021/06/26 22:34:57;;;;;;;13.30;9.60;;;21.90;95.40;;;;;;4905917;29;20028;-65
2021/06/26 22:37:23;;;;;;;11.52;8.77;;;21.90;95.70;;;;;;4927366;29;20402;-65
2021/06/26 22:39:49;;;;;;;10.23;8.05;;;21.90;95.80;;;;;;4898328;29;20052;-64
2021/06/26 22:42:15;;;;;;;10.73;9.00;;;21.90;95.80;;;;;;4906915;29;20168;-67
2021/06/26 22:44:40;;;;;;;10.02;8.23;;;21.80;95.70;;;;;;4912874;29;20028;-66
2021/06/26 22:47:06;;;;;;;12.02;8.82;;;21.80;95.90;;;;;;4914075;29;20029;-66
2021/06/26 22:49:32;;;;;;;10.77;9.63;;;21.80;96.00;;;;;;4912753;29;20450;-75
2021/06/26 22:51:58;;;;;;;10.38;7.93;;;21.70;96.20;;;;;;4912544;29;20457;-66
2021/06/26 22:54:24;;;;;;;10.23;8.05;;;21.70;96.30;;;;;;4909590;29;20040;-65
2021/06/26 22:56:50;;;;;;;9.38;7.68;;;21.70;96.40;;;;;;4904807;29;20252;-66
2021/06/26 22:59:16;;;;;;;8.15;6.88;;;21.60;96.50;;;;;;4904084;29;20077;-67
2021/06/26 23:01:42;;;;;;;9.48;8.15;;;21.60;96.50;;;;;;4901935;29;20115;-65
2021/06/26 23:04:07;;;;;;;7.75;6.95;;;21.60;96.80;;;;;;4903874;29;20028;-65
2021/06/26 23:06:34;;;;;;;8.20;7.43;;;21.50;96.80;;;;;;4901113;29;20035;-66
2021/06/26 23:09:00;;;;;;;13.18;7.63;;;21.40;97.00;;;;;;4911834;29;20036;-65
2021/06/26 23:11:25;;;;;;;9.23;8.13;;;21.40;97.00;;;;;;4902769;29;20032;-66
2021/06/26 23:13:51;;;;;;;9.00;7.25;;;21.40;97.30;;;;;;4902851;29;20024;-66
2021/06/26 23:16:17;;;;;;;7.50;6.80;;;21.30;97.40;;;;;;4905513;29;20021;-65
2021/06/26 23:18:42;;;;;;;7.63;6.95;;;21.30;97.50;;;;;;4903441;29;20505;-63
2021/06/26 23:21:09;;;;;;;7.65;6.63;;;21.30;97.50;;;;;;4899486;29;20059;-64
2021/06/26 23:23:35;;;;;;;9.10;8.15;;;21.30;97.60;;;;;;4902574;29;20099;-65
2021/06/26 23:26:00;;;;;;;8.73;7.75;;;21.30;97.70;;;;;;4903716;29;20040;-64
2021/06/26 23:28:27;;;;;;;9.00;6.78;;;21.30;97.80;;;;;;4904569;29;20028;-64
2021/06/26 23:30:54;;;;;;;6.95;6.25;;;21.20;97.80;;;;;;4904581;29;20041;-64
2021/06/26 23:33:20;;;;;;;7.43;6.65;;;21.10;97.90;;;;;;4902197;29;20466;-64
2021/06/26 23:35:46;;;;;;;7.85;6.75;;;21.10;97.90;;;;;;4893515;29;20404;-65
2021/06/26 23:38:13;;;;;;;8.85;6.30;;;21.10;97.90;;;;;;4904743;29;20036;-65
2021/06/26 23:40:46;;;;;;;7.78;6.78;;;21.00;98.10;;;;;;4927740;29;20505;-66
2021/06/26 23:43:12;;;;;;;7.80;6.13;;;20.80;98.30;;;;;;4913491;29;20497;-65
2021/06/26 23:45:42;;;;;;;6.20;5.60;;;20.80;98.60;;;;;;4912158;29;20469;-65
2021/06/26 23:48:09;;;;;;;9.93;6.10;;;20.90;98.60;;;;;;4914290;29;20028;-63
2021/06/26 23:50:37;;;;;;;6.05;5.45;;;20.90;98.60;;;;;;4902598;29;20038;-71
2021/06/26 23:53:04;;;;;;;9.25;6.00;;;20.90;98.70;;;;;;4903120;29;20476;-64
2021/06/26 23:55:30;;;;;;;6.00;5.20;;;20.90;98.50;;;;;;4903649;29;20033;-64
2021/06/26 23:57:57;;;;;;;8.35;5.53;;;20.90;98.60;;;;;;4900592;29;20024;-65
